Time;durP1;ratioP1;P1;durP2;ratioP2;P2;SDS_P1;SDS_P2;PMS_P1;PMS_P2;Temp;Humidity;BMP_temperature;BMP_pressure;BME280_temperature;BME280_humidity;BME280_pressure;Samples;Min_cycle;Max_cycle;Signal;HPM_P1;HPM_P2
2023/11/07 00:01:39;;;;;;;;;;;10.20;99.90;;;;;;5040976;28;20257;-74
2023/11/07 00:04:07;;;;;;;;;;;10.10;99.90;;;;;;5035779;28;20055;-82
2023/11/07 00:06:32;;;;;;;;;;;10.00;99.90;;;;;;5035355;28;20008;-83
2023/11/07 00:08:58;;;;;;;;;;;10.00;99.90;;;;;;5034967;28;20407;-83
2023/11/07 00:11:23;;;;;;;;;;;10.00;99.90;;;;;;5034204;28;19917;-74
2023/11/07 00:13:50;;;;;;;;;;;10.00;99.90;;;;;;5035170;28;19909;-74
2023/11/07 00:16:15;;;;;;;;;;;10.10;99.90;;;;;;5035218;28;19909;-74
2023/11/07 00:18:41;;;;;;;;;;;10.10;99.90;;;;;;5035123;28;20273;-84
2023/11/07 00:21:07;;;;;;;;;;;10.10;99.90;;;;;;5035113;28;19913;-84
2023/11/07 00:23:32;;;;;;;;;;;10.20;99.90;;;;;;5033747;28;19951;-83
2023/11/07 00:25:58;;;;;;;;;;;10.20;99.90;;;;;;5033851;28;19909;-73
2023/11/07 00:28:25;;;;;;;;;;;10.10;99.90;;;;;;5034590;28;19928;-74
2023/11/07 00:30:52;;;;;;;;;;;10.10;99.90;;;;;;5041218;28;19913;-74
2023/11/07 00:33:18;;;;;;;;;;;10.00;99.90;;;;;;5050248;28;19909;-83
2023/11/07 00:35:43;;;;;;;;;;;10.00;99.90;;;;;;5054683;28;20008;-83
2023/11/07 00:38:09;;;;;;;;;;;9.90;99.90;;;;;;5054760;28;19909;-74
2023/11/07 00:40:34;;;;;;;;;;;9.90;99.90;;;;;;5054912;28;19909;-83
2023/11/07 00:43:00;;;;;;;;;;;9.80;99.90;;;;;;5054679;28;19916;-74
2023/11/07 00:45:26;;;;;;;;;;;9.80;99.90;;;;;;5054506;28;20368;-83
2023/11/07 00:47:51;;;;;;;;;;;9.80;99.90;;;;;;5054406;28;19935;-83
2023/11/07 00:50:17;;;;;;;;;;;9.80;99.90;;;;;;5054444;28;19912;-74
2023/11/07 00:52:43;;;;;;;;;;;9.80;99.90;;;;;;5054739;28;19931;-74
2023/11/07 00:55:09;;;;;;;;;;;9.80;99.90;;;;;;5053060;28;20007;-74
2023/11/07 00:57:34;;;;;;;;;;;9.80;99.90;;;;;;5052363;28;19931;-81
2023/11/07 01:00:00;;;;;;;;;;;9.70;99.90;;;;;;5054522;28;20386;-83
2023/11/07 01:02:25;;;;;;;;;;;9.70;99.90;;;;;;5034950;28;19910;-82
2023/11/07 01:04:52;;;;;;;;;;;9.70;99.90;;;;;;5034742;28;19944;-82
2023/11/07 01:07:17;;;;;;;;;;;9.60;99.90;;;;;;5034236;28;20368;-74
2023/11/07 01:09:42;;;;;;;;;;;9.60;99.90;;;;;;5033686;28;19921;-74
2023/11/07 01:12:08;;;;;;;;;;;9.50;99.90;;;;;;5034004;28;19916;-82
2023/11/07 01:14:34;;;;;;;;;;;9.40;99.90;;;;;;5033354;28;19959;-74
2023/11/07 01:16:59;;;;;;;;;;;9.40;99.90;;;;;;5032676;28;19909;-74
2023/11/07 01:19:26;;;;;;;;;;;9.30;99.90;;;;;;5034303;28;19909;-83
2023/11/07 01:21:52;;;;;;;;;;;9.30;99.90;;;;;;5033713;28;19917;-83
2023/11/07 01:24:17;;;;;;;;;;;9.30;99.90;;;;;;5033845;28;19910;-82
2023/11/07 01:26:43;;;;;;;;;;;9.30;99.90;;;;;;5032387;28;19956;-83
2023/11/07 01:29:08;;;;;;;;;;;9.20;99.90;;;;;;5033758;28;19913;-82
2023/11/07 01:31:34;;;;;;;;;;;9.20;99.90;;;;;;5040669;28;20342;-74
2023/11/07 01:33:59;;;;;;;;;;;9.20;99.90;;;;;;5053915;28;19909;-74
2023/11/07 01:36:25;;;;;;;;;;;9.10;99.90;;;;;;5053568;28;19924;-74
2023/11/07 01:38:50;;;;;;;;;;;9.10;99.90;;;;;;5053554;28;19916;-74
2023/11/07 01:41:16;;;;;;;;;;;9.10;99.90;;;;;;5053505;28;20356;-83
2023/11/07 01:43:41;;;;;;;;;;;9.00;99.90;;;;;;5053640;28;19913;-83
2023/11/07 01:46:07;;;;;;;;;;;9.10;99.90;;;;;;5053910;28;19916;-74
2023/11/07 01:48:33;;;;;;;;;;;9.00;99.90;;;;;;5053325;28;19912;-74
2023/11/07 01:50:59;;;;;;;;;;;9.00;99.90;;;;;;5053731;28;19915;-83
2023/11/07 01:53:26;;;;;;;;;;;9.00;99.90;;;;;;5053250;28;19932;-83
2023/11/07 01:55:51;;;;;;;;;;;9.00;99.90;;;;;;5053543;28;19916;-73
2023/11/07 01:58:19;;;;;;;;;;;9.00;99.90;;;;;;5053297;28;20291;-73
2023/11/07 02:00:44;;;;;;;;;;;9.00;99.90;;;;;;5048221;28;19913;-73
2023/11/07 02:03:10;;;;;;;;;;;9.00;99.90;;;;;;5033029;28;19963;-83
2023/11/07 02:05:35;;;;;;;;;;;9.10;99.90;;;;;;5033576;28;19963;-83
2023/11/07 02:08:01;;;;;;;;;;;9.00;99.90;;;;;;5031987;28;19921;-74
2023/11/07 02:10:27;;;;;;;;;;;9.10;99.90;;;;;;5033307;28;19974;-73
2023/11/07 02:12:53;;;;;;;;;;;9.10;99.90;;;;;;5032985;28;20371;-74
2023/11/07 02:15:19;;;;;;;;;;;9.10;99.90;;;;;;5033456;28;20383;-74
2023/11/07 02:17:45;;;;;;;;;;;9.20;99.90;;;;;;5032300;28;19909;-83
2023/11/07 02:20:14;;;;;;;;;;;9.30;99.90;;;;;;5032946;28;20019;-83
2023/11/07 02:22:41;;;;;;;;;;;9.30;99.90;;;;;;5033282;28;20307;-73
2023/11/07 02:25:11;;;;;;;;;;;9.40;99.90;;;;;;5034495;28;19948;-74
2023/11/07 02:27:37;;;;;;;;;;;9.40;99.90;;;;;;5037187;28;19960;-82
2023/11/07 02:30:04;;;;;;;;;;;9.40;99.90;;;;;;5040433;28;19917;-83
2023/11/07 02:32:29;;;;;;;;;;;9.40;99.90;;;;;;5048045;28;19915;-83
2023/11/07 02:34:55;;;;;;;;;;;9.40;99.90;;;;;;5057003;28;19909;-73
2023/11/07 02:37:21;;;;;;;;;;;9.40;99.90;;;;;;5056953;28;20390;-83
2023/11/07 02:39:47;;;;;;;;;;;9.50;99.90;;;;;;5057134;28;19939;-73
2023/11/07 02:42:13;;;;;;;;;;;9.50;99.90;;;;;;5056929;28;19912;-83
2023/11/07 02:44:38;;;;;;;;;;;9.60;99.90;;;;;;5056995;28;19909;-73
2023/11/07 02:47:04;;;;;;;;;;;9.80;99.90;;;;;;5056929;28;19909;-74
2023/11/07 02:49:30;;;;;;;;;;;9.90;99.90;;;;;;5056544;28;19916;-73
2023/11/07 02:51:56;;;;;;;;;;;9.90;99.90;;;;;;5056627;28;20410;-73
2023/11/07 02:54:21;;;;;;;;;;;10.00;99.90;;;;;;5056781;28;19912;-73
2023/11/07 02:56:47;;;;;;;;;;;9.90;99.90;;;;;;5056741;28;19917;-83
2023/11/07 02:59:13;;;;;;;;;;;10.00;99.90;;;;;;5056520;28;19915;-83
2023/11/07 03:01:38;;;;;;;;;;;10.00;99.90;;;;;;5043724;28;19909;-73
2023/11/07 03:04:04;;;;;;;;;;;10.00;99.90;;;;;;5036637;28;19913;-73
2023/11/07 03:06:30;;;;;;;;;;;10.00;99.90;;;;;;5036641;28;19959;-73
2023/11/07 03:08:56;;;;;;;;;;;9.90;99.90;;;;;;5036067;28;19921;-84
2023/11/07 03:11:22;;;;;;;;;;;9.80;99.90;;;;;;5035644;28;19913;-83
2023/11/07 03:13:48;;;;;;;;;;;9.70;99.90;;;;;;5035355;28;19941;-84
2023/11/07 03:16:14;;;;;;;;;;;9.60;99.90;;;;;;5036750;28;19964;-73
2023/11/07 03:18:39;;;;;;;;;;;9.50;99.90;;;;;;5036042;28;19909;-84
2023/11/07 03:21:08;;;;;;;;;;;9.50;99.90;;;;;;5036235;28;19943;-83
2023/11/07 03:23:34;;;;;;;;;;;9.40;99.90;;;;;;5035416;28;19909;-82
2023/11/07 03:26:00;;;;;;;;;;;9.40;99.90;;;;;;5036027;28;19936;-84
2023/11/07 03:28:25;;;;;;;;;;;9.50;99.90;;;;;;5036089;28;20399;-74
2023/11/07 03:30:51;;;;;;;;;;;9.40;99.90;;;;;;5042373;28;19920;-73
2023/11/07 03:33:17;;;;;;;;;;;9.40;99.90;;;;;;5049939;28;20396;-73
2023/11/07 03:35:43;;;;;;;;;;;9.30;99.90;;;;;;5054336;28;19916;-83
2023/11/07 03:38:09;;;;;;;;;;;9.30;99.90;;;;;;5055112;28;20368;-83
2023/11/07 03:40:35;;;;;;;;;;;9.30;99.90;;;;;;5055832;28;19949;-73
2023/11/07 03:43:00;;;;;;;;;;;9.30;99.90;;;;;;5055634;28;19920;-79
2023/11/07 03:45:26;;;;;;;;;;;9.30;99.90;;;;;;5055784;28;19915;-73
2023/11/07 03:47:51;;;;;;;;;;;9.30;99.90;;;;;;5055379;28;19921;-83
2023/11/07 03:50:17;;;;;;;;;;;9.40;99.90;;;;;;5055738;28;20375;-85
2023/11/07 03:52:42;;;;;;;;;;;9.40;99.90;;;;;;5055611;28;20007;-73
2023/11/07 03:55:08;;;;;;;;;;;9.50;99.90;;;;;;5055631;28;19931;-74
2023/11/07 03:57:33;;;;;;;;;;;9.50;99.90;;;;;;5054696;28;19908;-74
2023/11/07 03:59:59;;;;;;;;;;;9.60;99.90;;;;;;5055665;28;19909;-73
2023/11/07 04:02:25;;;;;;;;;;;9.60;99.90;;;;;;5036176;28;19909;-83
2023/11/07 04:04:51;;;;;;;;;;;9.50;99.90;;;;;;5035898;28;20000;-83
2023/11/07 04:07:16;;;;;;;;;;;9.50;99.90;;;;;;5035327;28;19956;-74
2023/11/07 04:09:43;;;;;;;;;;;9.40;99.90;;;;;;5034836;28;20383;-74
2023/11/07 04:12:08;;;;;;;;;;;9.40;99.90;;;;;;5034952;28;19963;-83
2023/11/07 04:14:33;;;;;;;;;;;9.30;99.90;;;;;;5035354;28;19909;-83
2023/11/07 04:16:59;;;;;;;;;;;9.20;99.90;;;;;;5035196;28;19909;-83
2023/11/07 04:19:25;;;;;;;;;;;9.00;99.90;;;;;;5035223;28;19909;-74
2023/11/07 04:21:50;;;;;;;;;;;9.00;99.90;;;;;;5035027;28;20004;-74
2023/11/07 04:24:16;;;;;;;;;;;8.90;99.90;;;;;;5035107;28;20359;-74
2023/11/07 04:26:41;;;;;;;;;;;8.90;99.90;;;;;;5034857;28;19913;-83
2023/11/07 04:29:07;;;;;;;;;;;8.80;99.90;;;;;;5035145;28;20006;-83
2023/11/07 04:31:33;;;;;;;;;;;8.70;99.90;;;;;;5041181;28;19917;-74
2023/11/07 04:33:58;;;;;;;;;;;8.70;99.90;;;;;;5054694;28;20000;-83
2023/11/07 04:36:24;;;;;;;;;;;8.60;99.90;;;;;;5054723;28;19909;-74
2023/11/07 04:38:50;;;;;;;;;;;8.60;99.90;;;;;;5054708;28;20003;-73
2023/11/07 04:41:15;;;;;;;;;;;8.60;99.90;;;;;;5054813;28;20287;-82
2023/11/07 04:43:43;;;;;;;;;;;8.60;99.90;;;;;;5054627;28;20320;-82
2023/11/07 04:46:10;;;;;;;;;;;8.60;99.90;;;;;;5054745;28;20004;-73
2023/11/07 04:48:38;;;;;;;;;;;8.60;99.90;;;;;;5053162;28;19994;-73
2023/11/07 04:51:04;;;;;;;;;;;8.50;99.90;;;;;;5054752;28;19912;-82
2023/11/07 04:53:30;;;;;;;;;;;8.50;99.90;;;;;;5054372;28;19909;-83
2023/11/07 04:55:55;;;;;;;;;;;8.50;99.90;;;;;;5054256;28;20002;-83
2023/11/07 04:58:22;;;;;;;;;;;8.50;99.90;;;;;;5054328;28;20000;-73
2023/11/07 05:00:48;;;;;;;;;;;8.50;99.90;;;;;;5048930;28;20367;-73
2023/11/07 05:03:13;;;;;;;;;;;8.50;99.90;;;;;;5035228;28;20062;-74
2023/11/07 05:05:39;;;;;;;;;;;8.60;99.90;;;;;;5042816;28;19920;-83
2023/11/07 05:08:05;;;;;;;;;;;8.60;99.90;;;;;;5052088;28;19928;-83
2023/11/07 05:10:30;;;;;;;;;;;8.60;99.90;;;;;;5033856;28;19917;-73
2023/11/07 05:12:56;;;;;;;;;;;8.60;99.90;;;;;;5033978;28;20338;-74
2023/11/07 05:15:21;;;;;;;;;;;8.70;99.90;;;;;;5034217;28;19913;-73
2023/11/07 05:17:48;;;;;;;;;;;8.80;99.90;;;;;;5034216;28;20000;-73
2023/11/07 05:20:14;;;;;;;;;;;8.90;99.90;;;;;;5033951;28;19910;-82
2023/11/07 05:22:39;;;;;;;;;;;9.00;99.90;;;;;;5033376;28;19909;-83
2023/11/07 05:25:06;;;;;;;;;;;9.00;99.90;;;;;;5034153;28;20000;-72
2023/11/07 05:27:32;;;;;;;;;;;9.10;99.90;;;;;;5034043;28;19960;-73
2023/11/07 05:29:57;;;;;;;;;;;9.20;99.90;;;;;;5035843;28;19917;-83
2023/11/07 05:32:23;;;;;;;;;;;9.30;99.90;;;;;;5044853;28;19917;-83
2023/11/07 05:34:49;;;;;;;;;;;9.40;99.90;;;;;;5053554;28;19974;-84
2023/11/07 05:37:16;;;;;;;;;;;9.40;99.90;;;;;;5053605;28;20389;-73
2023/11/07 05:39:44;;;;;;;;;;;9.40;99.90;;;;;;5053821;28;20336;-72
2023/11/07 05:42:10;;;;;;;;;;;9.40;99.90;;;;;;5054323;28;19909;-84
2023/11/07 05:44:35;;;;;;;;;;;9.30;99.90;;;;;;5053460;28;19909;-84
2023/11/07 05:47:01;;;;;;;;;;;9.30;99.90;;;;;;5052217;28;19913;-85
2023/11/07 05:49:26;;;;;;;;;;;9.30;99.90;;;;;;5053280;28;19919;-73
2023/11/07 05:51:52;;;;;;;;;;;9.30;99.90;;;;;;5053252;28;19939;-73
2023/11/07 05:54:18;;;;;;;;;;;9.30;99.90;;;;;;5053594;28;19909;-83
2023/11/07 05:56:43;;;;;;;;;;;9.30;99.90;;;;;;5053063;28;19909;-85
2023/11/07 05:59:10;;;;;;;;;;;9.30;99.90;;;;;;5036222;28;20308;-84
2023/11/07 06:01:35;;;;;;;;;;;9.40;99.90;;;;;;5038821;28;20371;-84
2023/11/07 06:04:03;;;;;;;;;;;9.50;99.90;;;;;;5046004;28;19913;-73
2023/11/07 06:06:28;;;;;;;;;;;9.60;99.90;;;;;;5046412;28;19936;-73
2023/11/07 06:08:54;;;;;;;;;;;9.70;99.90;;;;;;5032841;28;20376;-73
2023/11/07 06:11:21;;;;;;;;;;;9.60;99.90;;;;;;5032377;28;20335;-84
2023/11/07 06:13:47;;;;;;;;;;;9.60;99.90;;;;;;5032903;28;19921;-85
2023/11/07 06:16:12;;;;;;;;;;;9.60;99.90;;;;;;5033408;28;19917;-85
2023/11/07 06:18:39;;;;;;;;;;;9.50;99.90;;;;;;5033138;28;19909;-74
2023/11/07 06:21:05;;;;;;;;;;;9.50;99.90;;;;;;5033208;28;19909;-73
2023/11/07 06:23:30;;;;;;;;;;;9.50;99.90;;;;;;5031603;28;20002;-84
2023/11/07 06:25:56;;;;;;;;;;;9.50;99.90;;;;;;5032919;28;19954;-84
2023/11/07 06:28:21;;;;;;;;;;;9.60;99.90;;;;;;5032816;28;19913;-74
2023/11/07 06:30:47;;;;;;;;;;;9.60;99.90;;;;;;5038133;28;20019;-74
2023/11/07 06:33:12;;;;;;;;;;;9.60;99.90;;;;;;5039692;28;20402;-73
2023/11/07 06:35:38;;;;;;;;;;;9.60;99.90;;;;;;5051839;28;19948;-74
2023/11/07 06:38:03;;;;;;;;;;;9.60;99.90;;;;;;5030242;28;19913;-74
2023/11/07 06:40:29;;;;;;;;;;;9.60;99.90;;;;;;5033050;28;19916;-74
2023/11/07 06:42:54;;;;;;;;;;;9.60;99.90;;;;;;5032710;28;19909;-74
2023/11/07 06:45:20;;;;;;;;;;;9.50;99.90;;;;;;5032809;28;19956;-73
2023/11/07 06:47:46;;;;;;;;;;;9.50;99.90;;;;;;5032450;28;19913;-83
2023/11/07 06:50:13;;;;;;;;;;;9.50;99.90;;;;;;5032533;28;19921;-83
2023/11/07 06:52:43;;;;;;;;;;;9.50;99.90;;;;;;5032736;28;19910;-83
2023/11/07 06:55:13;;;;;;;;;;;9.40;99.90;;;;;;5032980;28;19936;-74
2023/11/07 06:57:39;;;;;;;;;;;9.40;99.90;;;;;;5047196;28;19915;-83
2023/11/07 07:00:05;;;;;;;;;;;9.30;99.90;;;;;;5051488;28;19913;-76
2023/11/07 07:02:32;;;;;;;;;;;9.30;99.90;;;;;;5039344;28;19917;-73
2023/11/07 07:04:58;;;;;;;;;;;9.30;99.90;;;;;;5038314;28;19952;-83
2023/11/07 07:07:23;;;;;;;;;;;9.30;99.90;;;;;;5019263;28;19921;-83
2023/11/07 07:09:49;;;;;;;;;;;9.40;99.90;;;;;;5025297;28;19925;-83
2023/11/07 07:12:14;;;;;;;;;;;9.50;99.90;;;;;;5033270;28;19917;-73
2023/11/07 07:14:40;;;;;;;;;;;9.60;99.90;;;;;;5036334;28;19909;-74
2023/11/07 07:17:07;;;;;;;;;;;9.60;99.90;;;;;;5027183;28;19956;-82
2023/11/07 07:19:37;;;;;;;;;;;9.60;99.90;;;;;;5023431;28;20398;-81
2023/11/07 07:22:06;;;;;;;;;;;9.60;99.90;;;;;;5038328;28;19912;-74
2023/11/07 07:24:32;;;;;;;;;;;9.60;99.90;;;;;;5039012;28;19923;-73
2023/11/07 07:26:58;;;;;;;;;;;9.60;99.90;;;;;;5034110;28;19913;-74
2023/11/07 07:29:27;;;;;;;;;;;9.50;99.90;;;;;;5035910;28;20319;-81
2023/11/07 07:31:53;;;;;;;;;;;9.60;99.90;;;;;;5042512;28;20288;-80
2023/11/07 07:34:18;;;;;;;;;;;9.70;99.90;;;;;;5040977;28;19909;-82
2023/11/07 07:36:44;;;;;;;;;;;9.70;99.90;;;;;;5031858;28;20423;-74
2023/11/07 07:39:27;;;;;;;;;;;9.70;99.90;;;;;;5032531;28;19909;-73
2023/11/07 07:42:11;;;;;;;;;;;9.70;99.90;;;;;;5033825;28;20074;-74
2023/11/07 07:44:37;;;;;;;;;;;9.60;99.90;;;;;;5040241;28;19913;-80
2023/11/07 07:47:03;;;;;;;;;;;9.60;99.90;;;;;;5035122;28;19909;-73
2023/11/07 07:49:30;;;;;;;;;;;9.70;99.90;;;;;;5033953;28;19930;-80
2023/11/07 07:51:58;;;;;;;;;;;9.70;99.90;;;;;;5031893;28;20011;-80
2023/11/07 07:54:24;;;;;;;;;;;9.70;99.90;;;;;;5031728;28;19992;-80
2023/11/07 07:56:56;;;;;;;;;;;9.70;99.90;;;;;;5033341;28;19913;-79
2023/11/07 07:59:25;;;;;;;;;;;9.60;99.90;;;;;;5032486;28;19919;-80
2023/11/07 08:01:57;;;;;;;;;;;9.70;99.90;;;;;;5029045;28;19917;-74
2023/11/07 08:04:23;;;;;;;;;;;9.60;99.90;;;;;;5024251;28;19928;-73
2023/11/07 08:06:48;;;;;;;;;;;9.70;99.90;;;;;;5033656;28;19956;-74
2023/11/07 08:09:18;;;;;;;;;;;9.70;99.90;;;;;;5036767;28;20002;-81
2023/11/07 08:12:08;;;;;;;;;;;9.80;99.90;;;;;;5031947;28;20024;-80
2023/11/07 08:14:35;;;;;;;;;;;9.80;99.90;;;;;;5033339;28;19953;-73
2023/11/07 08:17:01;;;;;;;;;;;9.90;99.90;;;;;;5035515;28;20252;-73
2023/11/07 08:19:26;;;;;;;;;;;9.90;99.90;;;;;;5037704;28;19917;-80
2023/11/07 08:21:53;;;;;;;;;;;10.00;99.90;;;;;;5031994;28;19918;-80
2023/11/07 08:24:19;;;;;;;;;;;10.10;99.90;;;;;;5036700;28;19923;-80
2023/11/07 08:26:44;;;;;;;;;;;10.10;99.90;;;;;;5030305;28;19913;-73
2023/11/07 08:29:11;;;;;;;;;;;10.20;99.90;;;;;;5032630;28;19928;-80
2023/11/07 08:31:36;;;;;;;;;;;10.40;99.90;;;;;;5033971;28;19917;-72
2023/11/07 08:34:04;;;;;;;;;;;10.50;99.90;;;;;;5036667;28;19932;-79
2023/11/07 08:36:34;;;;;;;;;;;10.60;99.90;;;;;;5038300;28;20279;-79
2023/11/07 08:38:59;;;;;;;;;;;10.80;99.90;;;;;;5038528;28;19924;-79
2023/11/07 08:41:25;;;;;;;;;;;10.80;99.90;;;;;;5038239;28;19913;-79
2023/11/07 08:43:51;;;;;;;;;;;10.90;99.90;;;;;;5033256;28;20295;-78
2023/11/07 08:46:20;;;;;;;;;;;10.90;99.90;;;;;;5032090;28;20346;-79
2023/11/07 08:48:46;;;;;;;;;;;10.90;99.90;;;;;;5035165;28;19999;-79
2023/11/07 08:51:14;;;;;;;;;;;10.90;99.90;;;;;;5033513;28;20346;-72
2023/11/07 08:53:43;;;;;;;;;;;10.90;99.90;;;;;;5034104;28;20380;-79
2023/11/07 08:56:09;;;;;;;;;;;10.90;99.90;;;;;;5033543;28;20323;-73
2023/11/07 08:58:35;;;;;;;;;;;10.90;99.90;;;;;;5036794;28;19913;-73
2023/11/07 09:01:01;;;;;;;;;;;10.90;99.90;;;;;;5031141;28;19952;-81
2023/11/07 09:03:29;;;;;;;;;;;10.90;99.90;;;;;;5035445;28;19924;-72
2023/11/07 09:05:55;;;;;;;;;;;11.00;99.90;;;;;;5044981;28;19920;-81
2023/11/07 09:08:20;;;;;;;;;;;11.00;99.90;;;;;;5027227;28;20406;-73
2023/11/07 09:10:47;;;;;;;;;;;11.00;99.90;;;;;;5031720;28;19920;-71
2023/11/07 09:13:14;;;;;;;;;;;11.10;99.90;;;;;;5030819;28;20316;-82
2023/11/07 09:15:40;;;;;;;;;;;11.10;99.90;;;;;;5030517;28;19917;-81
2023/11/07 09:18:07;;;;;;;;;;;11.10;99.90;;;;;;5031004;28;19914;-72
2023/11/07 09:20:34;;;;;;;;;;;11.20;99.90;;;;;;5030338;28;20016;-72
2023/11/07 09:23:00;;;;;;;;;;;11.20;99.90;;;;;;5033996;28;19924;-82
2023/11/07 09:25:25;;;;;;;;;;;11.20;99.90;;;;;;5031066;28;19917;-82
2023/11/07 09:27:51;;;;;;;;;;;11.20;99.90;;;;;;5024009;28;19924;-79
2023/11/07 09:30:17;;;;;;;;;;;11.20;99.90;;;;;;5028437;28;20312;-82
2023/11/07 09:32:43;;;;;;;;;;;11.20;99.90;;;;;;5036035;28;19917;-72
2023/11/07 09:35:09;;;;;;;;;;;11.20;99.90;;;;;;5039376;28;19936;-82
2023/11/07 09:37:41;;;;;;;;;;;11.20;99.90;;;;;;5039445;28;20384;-80
2023/11/07 09:40:10;;;;;;;;;;;11.20;99.90;;;;;;5029935;28;20350;-81
2023/11/07 09:42:44;;;;;;;;;;;11.20;99.90;;;;;;5031727;28;20430;-71
2023/11/07 09:45:18;;;;;;;;;;;11.10;99.90;;;;;;5029366;28;19923;-71
2023/11/07 09:47:47;;;;;;;;;;;11.20;99.90;;;;;;5033469;28;19920;-82
2023/11/07 09:50:17;;;;;;;;;;;11.10;99.90;;;;;;5044441;28;19925;-81
2023/11/07 09:52:46;;;;;;;;;;;11.10;99.90;;;;;;5033133;28;19929;-81
2023/11/07 09:55:15;;;;;;;;;;;11.10;99.90;;;;;;5030557;28;19921;-80
2023/11/07 09:57:59;;;;;;;;;;;11.00;99.90;;;;;;5036654;28;20379;-72
2023/11/07 10:00:25;;;;;;;;;;;11.00;99.90;;;;;;5043360;28;20287;-81
2023/11/07 10:02:50;;;;;;;;;;;11.00;99.90;;;;;;5032452;28;19917;-72
2023/11/07 10:05:20;;;;;;;;;;;10.90;99.90;;;;;;5031330;28;19986;-81
2023/11/07 10:07:49;;;;;;;;;;;10.90;99.90;;;;;;5030343;28;19924;-78
2023/11/07 10:10:16;;;;;;;;;;;11.00;99.90;;;;;;5030365;28;19928;-71
2023/11/07 10:12:45;;;;;;;;;;;11.00;99.90;;;;;;5031239;28;20240;-70
2023/11/07 10:15:15;;;;;;;;;;;11.10;99.90;;;;;;5032897;28;19917;-82
2023/11/07 10:17:55;;;;;;;;;;;11.20;99.90;;;;;;5036575;28;19992;-71
2023/11/07 10:20:21;;;;;;;;;;;11.30;99.90;;;;;;5033018;28;20443;-81
2023/11/07 10:22:46;;;;;;;;;;;11.30;99.90;;;;;;5030673;28;20029;-82
2023/11/07 10:25:32;;;;;;;;;;;11.30;99.90;;;;;;5030789;28;19917;-81
2023/11/07 10:27:59;;;;;;;;;;;11.40;99.90;;;;;;5033760;28;19916;-72
2023/11/07 10:30:39;;;;;;;;;;;11.40;99.90;;;;;;5038103;28;19960;-80
2023/11/07 10:33:08;;;;;;;;;;;11.40;99.90;;;;;;5030675;28;20364;-72
2023/11/07 10:35:51;;;;;;;;;;;11.50;99.90;;;;;;5030770;28;19920;-71
2023/11/07 10:38:16;;;;;;;;;;;11.60;99.90;;;;;;5025941;28;20368;-82
2023/11/07 10:40:42;;;;;;;;;;;11.60;99.90;;;;;;5037879;28;20027;-70
2023/11/07 10:43:08;;;;;;;;;;;11.60;99.90;;;;;;5036613;28;20350;-72
2023/11/07 10:45:35;;;;;;;;;;;11.70;99.90;;;;;;5033192;28;19928;-80
2023/11/07 10:48:01;;;;;;;;;;;11.90;99.90;;;;;;5036818;28;19913;-80
2023/11/07 10:50:27;;;;;;;;;;;11.90;99.90;;;;;;5045324;28;19917;-81
2023/11/07 10:52:53;;;;;;;;;;;11.80;99.90;;;;;;5049962;28;19923;-81
2023/11/07 10:55:19;;;;;;;;;;;11.80;99.90;;;;;;5036326;28;20003;-71
2023/11/07 10:57:46;;;;;;;;;;;11.80;99.90;;;;;;5033593;28;19988;-81
2023/11/07 11:00:19;;;;;;;;;;;11.60;99.90;;;;;;5043027;28;19917;-73
2023/11/07 11:02:48;;;;;;;;;;;11.40;99.90;;;;;;5043717;28;19924;-72
2023/11/07 11:05:15;;;;;;;;;;;11.20;99.90;;;;;;5033448;28;19920;-76
2023/11/07 11:07:48;;;;;;;;;;;11.00;99.90;;;;;;5030722;28;19924;-70
2023/11/07 11:10:15;;;;;;;;;;;11.00;99.90;;;;;;5033434;28;19956;-71
2023/11/07 11:12:43;;;;;;;;;;;11.00;99.90;;;;;;5032575;28;19917;-81
2023/11/07 11:15:09;;;;;;;;;;;11.10;99.90;;;;;;5029908;28;19913;-71
2023/11/07 11:17:45;;;;;;;;;;;11.30;99.90;;;;;;5034609;28;19913;-81
2023/11/07 11:20:15;;;;;;;;;;;11.60;99.90;;;;;;5038231;28;20283;-71
2023/11/07 11:22:44;;;;;;;;;;;11.70;99.90;;;;;;5027173;28;19960;-78
2023/11/07 11:25:19;;;;;;;;;;;12.00;99.90;;;;;;5022362;28;19921;-72
2023/11/07 11:27:56;;;;;;;;;;;12.20;99.90;;;;;;5036976;28;19955;-80
2023/11/07 11:30:31;;;;;;;;;;;12.40;99.90;;;;;;5031357;28;20364;-82
2023/11/07 11:33:05;;;;;;;;;;;12.50;99.90;;;;;;5030311;28;19938;-73
2023/11/07 11:35:31;;;;;;;;;;;12.70;99.90;;;;;;5030836;28;19936;-72
2023/11/07 11:40:54;;;;;;;;;;;12.90;99.90;;;;;;5024150;28;19924;-72
2023/11/07 11:43:21;;;;;;;;;;;12.60;99.90;;;;;;5029592;28;20000;-72
2023/11/07 11:45:50;;;;;;;;;;;12.70;99.90;;;;;;5035880;28;19917;-72
2023/11/07 11:48:18;;;;;;;;;;;12.50;99.90;;;;;;5028775;28;21487;-82
2023/11/07 11:50:44;;;;;;;;;;;12.40;99.90;;;;;;5044695;28;19916;-81
2023/11/07 11:53:30;;;;;;;;;;;12.50;99.90;;;;;;5032652;28;19920;-82
2023/11/07 11:55:58;;;;;;;;;;;12.60;99.90;;;;;;5028443;28;20423;-71
2023/11/07 11:58:30;;;;;;;;;;;12.50;99.90;;;;;;5032958;28;19913;-80
2023/11/07 12:00:57;;;;;;;;;;;12.40;99.90;;;;;;5028121;28;19983;-72
2023/11/07 12:03:24;;;;;;;;;;;12.30;99.90;;;;;;5031448;28;19944;-80
2023/11/07 12:06:00;;;;;;;;;;;12.40;99.90;;;;;;5032254;28;20116;-72
2023/11/07 12:08:41;;;;;;;;;;;12.80;99.90;;;;;;5035958;28;19936;-82
2023/11/07 12:11:07;;;;;;;;;;;12.90;99.90;;;;;;5031489;28;19921;-82
2023/11/07 12:13:33;;;;;;;;;;;12.80;99.90;;;;;;5034863;28;20007;-71
2023/11/07 12:16:13;;;;;;;;;;;12.90;99.90;;;;;;5037963;28;19929;-78
2023/11/07 12:18:43;;;;;;;;;;;13.00;99.90;;;;;;5034307;28;20003;-83
2023/11/07 12:21:09;;;;;;;;;;;13.00;99.90;;;;;;5034497;28;19917;-71
2023/11/07 12:23:35;;;;;;;;;;;13.20;99.90;;;;;;5033152;28;20284;-72
2023/11/07 12:26:01;;;;;;;;;;;13.10;99.90;;;;;;5036033;28;19923;-72
2023/11/07 12:28:26;;;;;;;;;;;13.10;99.90;;;;;;5043644;28;20300;-82
2023/11/07 12:30:55;;;;;;;;;;;13.50;99.90;;;;;;5040331;28;20440;-80
2023/11/07 12:33:21;;;;;;;;;;;14.10;99.90;;;;;;5039265;28;19913;-81
2023/11/07 12:35:50;;;;;;;;;;;13.80;99.90;;;;;;5028372;28;20017;-72
2023/11/07 12:38:18;;;;;;;;;;;13.50;99.90;;;;;;5030731;28;19913;-73
2023/11/07 12:40:44;;;;;;;;;;;13.80;99.90;;;;;;5039894;28;19994;-81
2023/11/07 12:43:10;;;;;;;;;;;14.20;99.90;;;;;;5036673;28;19948;-71
2023/11/07 12:45:36;;;;;;;;;;;14.00;99.90;;;;;;5032692;28;19917;-72
2023/11/07 12:48:03;;;;;;;;;;;13.80;99.90;;;;;;5032498;28;19913;-72
2023/11/07 12:50:33;;;;;;;;;;;13.40;99.90;;;;;;5032246;28;20368;-81
2023/11/07 12:53:04;;;;;;;;;;;13.30;99.90;;;;;;5030746;28;20020;-71
2023/11/07 12:55:30;;;;;;;;;;;13.40;99.90;;;;;;5032313;28;20003;-82
2023/11/07 12:57:56;;;;;;;;;;;13.30;99.90;;;;;;5031545;28;19913;-81
2023/11/07 13:00:24;;;;;;;;;;;13.00;99.90;;;;;;5032358;28;20011;-71
2023/11/07 13:02:52;;;;;;;;;;;13.50;99.90;;;;;;5039424;28;19913;-81
2023/11/07 13:05:19;;;;;;;;;;;13.40;99.90;;;;;;5027621;28;19917;-79
2023/11/07 13:07:44;;;;;;;;;;;13.10;99.90;;;;;;5030444;28;20252;-80
2023/11/07 13:10:14;;;;;;;;;;;12.60;99.90;;;;;;5031086;28;19917;-79
2023/11/07 13:12:39;;;;;;;;;;;12.50;99.90;;;;;;5031474;28;19991;-71
2023/11/07 13:15:05;;;;;;;;;;;12.30;99.90;;;;;;5031336;28;20412;-71
2023/11/07 13:17:34;;;;;;;;;;;12.20;99.90;;;;;;5025450;28;19916;-71
2023/11/07 13:19:59;;;;;;;;;;;12.40;99.90;;;;;;5034618;28;19923;-81
2023/11/07 13:22:25;;;;;;;;;;;12.50;99.90;;;;;;5030746;28;19913;-81
2023/11/07 13:24:51;;;;;;;;;;;12.60;99.90;;;;;;5039373;28;19970;-72
2023/11/07 13:27:16;;;;;;;;;;;12.70;99.90;;;;;;5031445;28;19940;-72
2023/11/07 13:29:43;;;;;;;;;;;12.80;99.90;;;;;;5031406;28;19975;-71
2023/11/07 13:32:09;;;;;;;;;;;12.90;99.90;;;;;;5037554;28;19909;-71
2023/11/07 13:34:34;;;;;;;;;;;12.60;99.90;;;;;;5036061;28;19917;-80
2023/11/07 13:36:59;;;;;;;;;;;12.40;99.90;;;;;;5030944;28;19913;-79
2023/11/07 13:39:25;;;;;;;;;;;12.20;99.90;;;;;;5032215;28;19924;-71
2023/11/07 13:41:51;;;;;;;;;;;12.10;99.90;;;;;;5028358;28;20291;-71
2023/11/07 13:44:16;;;;;;;;;;;12.00;99.90;;;;;;5030423;28;19913;-71
2023/11/07 13:46:42;;;;;;;;;;;11.90;99.90;;;;;;5031261;28;19913;-79
2023/11/07 13:49:11;;;;;;;;;;;11.80;99.90;;;;;;5031426;28;19967;-79
2023/11/07 13:51:39;;;;;;;;;;;11.80;99.90;;;;;;5030565;28;19975;-71
2023/11/07 13:54:06;;;;;;;;;;;11.80;99.90;;;;;;5030759;28;19917;-71
2023/11/07 13:56:32;;;;;;;;;;;11.70;99.90;;;;;;5029450;28;19917;-71
2023/11/07 13:58:59;;;;;;;;;;;11.80;99.90;;;;;;5031415;28;19913;-79
2023/11/07 14:01:24;;;;;;;;;;;11.80;99.90;;;;;;5031245;28;19917;-79
2023/11/07 14:03:49;;;;;;;;;;;11.80;99.90;;;;;;5030292;28;20272;-72
2023/11/07 14:06:18;;;;;;;;;;;11.80;99.90;;;;;;5030324;28;19975;-72
2023/11/07 14:08:43;;;;;;;;;;;11.70;99.90;;;;;;5030812;28;20400;-72
2023/11/07 14:11:10;;;;;;;;;;;11.70;99.90;;;;;;5030733;28;19917;-72
2023/11/07 14:13:35;;;;;;;;;;;11.70;99.90;;;;;;5029855;28;19929;-78
2023/11/07 14:16:01;;;;;;;;;;;11.80;99.90;;;;;;5031236;28;19913;-79
2023/11/07 14:18:26;;;;;;;;;;;11.90;99.90;;;;;;5027591;28;19916;-72
2023/11/07 14:20:54;;;;;;;;;;;12.00;99.90;;;;;;5030200;28;19917;-72
2023/11/07 14:23:20;;;;;;;;;;;12.10;99.90;;;;;;5030606;28;19913;-71
2023/11/07 14:25:46;;;;;;;;;;;12.10;99.90;;;;;;5029767;28;19920;-79